createdAt,value
2018-12-16T00:01:04.256Z,22.70
2018-12-16T00:03:32.630Z,22.70
2018-12-16T00:06:00.760Z,22.70
2018-12-16T00:08:28.986Z,22.70
2018-12-16T00:10:57.127Z,22.60
2018-12-16T00:13:25.241Z,22.60
2018-12-16T00:15:53.427Z,22.50
2018-12-16T00:18:21.538Z,22.50
2018-12-16T00:20:49.646Z,22.50
2018-12-16T00:23:18.057Z,22.50
2018-12-16T00:25:46.177Z,22.50
2018-12-16T00:28:14.294Z,22.50
2018-12-16T00:30:42.501Z,22.60
2018-12-16T00:33:10.669Z,22.70
2018-12-16T00:35:38.950Z,22.70
2018-12-16T00:38:07.674Z,22.80
2018-12-16T00:40:35.828Z,22.80
2018-12-16T00:43:04.106Z,22.90
2018-12-16T00:45:33.225Z,22.90
2018-12-16T00:48:01.350Z,23.00
2018-12-16T00:50:29.458Z,23.00
2018-12-16T00:52:57.603Z,23.00
2018-12-16T00:55:25.855Z,23.00
2018-12-16T00:57:54.002Z,23.00
2018-12-16T01:00:22.104Z,23.00
2018-12-16T01:02:50.218Z,23.00
2018-12-16T01:05:18.372Z,23.00
2018-12-16T01:07:46.477Z,23.00
2018-12-16T01:10:14.603Z,22.90
2018-12-16T01:12:42.738Z,23.00
2018-12-16T01:15:10.854Z,22.90
2018-12-16T01:17:39.016Z,22.90
2018-12-16T01:20:07.212Z,22.80
2018-12-16T01:22:35.340Z,22.80
2018-12-16T01:25:03.699Z,22.70
2018-12-16T01:27:31.793Z,22.70
2018-12-16T01:29:59.924Z,22.70
2018-12-16T01:32:28.042Z,22.60
2018-12-16T01:34:56.152Z,22.60
2018-12-16T01:37:24.286Z,22.60
2018-12-16T01:39:53.118Z,22.50
2018-12-16T01:42:21.234Z,22.60
2018-12-16T01:44:49.346Z,22.50
2018-12-16T01:47:17.539Z,22.50
2018-12-16T01:49:45.647Z,22.50
2018-12-16T01:52:13.756Z,22.50
2018-12-16T01:54:41.899Z,22.50
2018-12-16T01:57:10.014Z,22.50
2018-12-16T01:59:38.156Z,22.40
2018-12-16T02:02:06.807Z,22.40
2018-12-16T02:04:34.941Z,22.40
2018-12-16T02:07:03.051Z,22.40
2018-12-16T02:09:31.189Z,22.50
2018-12-16T02:11:59.335Z,22.50
2018-12-16T02:17:02.016Z,22.70
2018-12-16T02:19:30.138Z,22.80
2018-12-16T02:21:58.285Z,22.90
2018-12-16T02:24:26.416Z,23.00
2018-12-16T02:26:54.512Z,23.10
2018-12-16T02:29:23.017Z,23.10
2018-12-16T02:31:51.137Z,23.10
2018-12-16T02:34:19.275Z,23.10
2018-12-16T02:36:47.380Z,23.10
2018-12-16T02:39:15.782Z,23.10
2018-12-16T02:41:43.921Z,23.00
2018-12-16T02:44:12.033Z,23.00
2018-12-16T02:46:40.409Z,22.90
2018-12-16T02:49:08.573Z,22.80
2018-12-16T02:51:36.696Z,22.70
2018-12-16T02:54:04.807Z,22.70
2018-12-16T02:56:32.926Z,22.60
2018-12-16T02:59:01.133Z,22.50
2018-12-16T03:01:29.243Z,22.50
2018-12-16T03:03:57.397Z,22.40
2018-12-16T03:06:25.580Z,22.40
2018-12-16T03:08:53.694Z,22.30
2018-12-16T03:11:21.831Z,22.30
2018-12-16T03:13:49.966Z,22.40
2018-12-16T03:16:18.073Z,22.40
2018-12-16T03:18:46.201Z,22.50
2018-12-16T03:21:14.340Z,22.60
2018-12-16T03:23:42.446Z,22.70
2018-12-16T03:26:10.580Z,22.80
2018-12-16T03:28:38.727Z,22.90
2018-12-16T03:31:06.859Z,23.00
2018-12-16T03:33:34.965Z,23.10
2018-12-16T03:36:03.155Z,23.10
2018-12-16T03:38:31.275Z,23.10
2018-12-16T03:40:59.406Z,23.10
2018-12-16T03:43:27.539Z,23.10
2018-12-16T03:45:55.665Z,23.00
2018-12-16T03:48:23.782Z,22.90
2018-12-16T03:50:51.914Z,22.80
2018-12-16T03:53:20.461Z,22.80
2018-12-16T03:55:49.766Z,22.70
2018-12-16T03:58:17.877Z,22.70
2018-12-16T04:00:46.010Z,22.60
2018-12-16T04:03:14.176Z,22.50
2018-12-16T04:05:42.287Z,22.40
2018-12-16T04:08:10.403Z,22.30
2018-12-16T04:10:38.538Z,22.30
2018-12-16T04:13:08.609Z,22.20
2018-12-16T04:15:38.710Z,22.20
2018-12-16T04:18:08.783Z,22.20
2018-12-16T04:20:38.920Z,22.20
2018-12-16T04:23:09.002Z,22.20
2018-12-16T04:25:39.093Z,22.40
2018-12-16T04:28:09.427Z,22.50
2018-12-16T04:30:38.493Z,22.70
2018-12-16T04:33:06.602Z,22.90
2018-12-16T04:35:34.715Z,23.20
2018-12-16T04:38:02.861Z,23.40
2018-12-16T04:40:30.962Z,23.50
2018-12-16T04:42:59.084Z,23.70
2018-12-16T04:45:27.576Z,23.80
2018-12-16T04:47:55.757Z,23.90
2018-12-16T04:50:23.858Z,23.90
2018-12-16T04:52:51.999Z,23.90
2018-12-16T04:55:20.193Z,23.90
2018-12-16T04:57:48.307Z,23.80
2018-12-16T05:00:16.454Z,23.80
2018-12-16T05:02:44.872Z,23.80
2018-12-16T05:05:12.974Z,23.60
2018-12-16T05:07:41.112Z,23.50
2018-12-16T05:10:23.037Z,23.40
2018-12-16T05:12:51.181Z,23.30
2018-12-16T05:15:19.286Z,23.20
2018-12-16T05:17:47.434Z,23.00
2018-12-16T05:20:15.542Z,22.90
2018-12-16T05:22:43.659Z,22.80
2018-12-16T05:25:11.796Z,22.60
2018-12-16T05:27:39.913Z,22.50
2018-12-16T05:30:11.343Z,22.40
2018-12-16T05:32:39.580Z,22.40
2018-12-16T05:35:07.686Z,22.30
2018-12-16T05:37:35.817Z,22.10
2018-12-16T05:40:03.997Z,22.10
2018-12-16T05:42:32.103Z,22.00
2018-12-16T05:45:00.215Z,21.90
2018-12-16T05:47:28.376Z,21.80
2018-12-16T05:49:57.557Z,21.80
2018-12-16T05:52:25.733Z,21.80
2018-12-16T05:54:53.970Z,21.90
2018-12-16T05:57:22.089Z,22.10
2018-12-16T05:59:50.194Z,22.40
2018-12-16T06:02:18.480Z,22.70
2018-12-16T06:04:46.597Z,23.10
2018-12-16T06:07:14.751Z,23.40
2018-12-16T06:09:42.931Z,23.70
2018-12-16T06:12:11.038Z,23.90
2018-12-16T06:14:39.168Z,24.00
2018-12-16T06:17:07.285Z,24.10
2018-12-16T06:19:35.409Z,24.10
2018-12-16T06:22:03.553Z,24.10
2018-12-16T06:24:31.689Z,24.10
2018-12-16T06:26:59.805Z,24.00
2018-12-16T06:29:28.005Z,23.90
2018-12-16T06:31:56.178Z,23.80
2018-12-16T06:34:24.289Z,23.70
2018-12-16T06:36:52.429Z,23.60
2018-12-16T06:39:20.603Z,23.50
2018-12-16T06:41:48.859Z,23.30
2018-12-16T06:44:17.272Z,23.20
2018-12-16T06:46:45.364Z,23.10
2018-12-16T06:49:13.475Z,23.00
2018-12-16T06:51:41.609Z,22.80
2018-12-16T06:54:09.726Z,22.80
2018-12-16T06:56:37.858Z,22.70
2018-12-16T06:59:05.998Z,22.60
2018-12-16T07:01:34.108Z,22.50
2018-12-16T07:04:02.229Z,22.40
2018-12-16T07:06:30.351Z,22.30
2018-12-16T07:08:58.497Z,22.30
2018-12-16T07:11:26.609Z,22.20
2018-12-16T07:13:55.221Z,22.10
2018-12-16T07:16:23.414Z,22.00
2018-12-16T07:18:51.614Z,22.00
2018-12-16T07:21:19.733Z,22.00
2018-12-16T07:23:48.141Z,22.00
2018-12-16T07:26:16.332Z,22.00
2018-12-16T07:28:44.469Z,22.20
2018-12-16T07:31:13.658Z,22.30
2018-12-16T07:33:41.769Z,22.50
2018-12-16T07:36:09.907Z,22.80
2018-12-16T07:38:38.032Z,23.00
2018-12-16T07:41:06.174Z,23.30
2018-12-16T07:43:34.287Z,23.50
2018-12-16T07:46:02.440Z,23.60
2018-12-16T07:48:30.751Z,23.70
2018-12-16T07:50:58.979Z,23.80
2018-12-16T07:53:28.696Z,23.70
2018-12-16T07:55:57.090Z,23.70
2018-12-16T07:58:25.285Z,23.70
2018-12-16T08:00:53.445Z,23.60
2018-12-16T08:03:21.572Z,23.50
2018-12-16T08:05:49.750Z,23.40
2018-12-16T08:08:18.032Z,23.20
2018-12-16T08:10:46.206Z,23.10
2018-12-16T08:13:14.349Z,23.00
2018-12-16T08:15:42.466Z,22.90
2018-12-16T08:18:10.616Z,22.80
2018-12-16T08:23:52.612Z,22.80
2018-12-16T08:26:21.043Z,22.90
2018-12-16T08:28:49.477Z,22.80
2018-12-16T08:31:17.674Z,22.70
2018-12-16T08:33:45.794Z,22.60
2018-12-16T08:36:13.960Z,22.40
2018-12-16T08:38:42.083Z,22.30
2018-12-16T08:41:10.236Z,22.20
2018-12-16T08:43:38.892Z,22.20
2018-12-16T08:46:07.094Z,22.10
2018-12-16T08:48:36.157Z,22.10
2018-12-16T08:51:04.309Z,22.00
2018-12-16T08:53:32.462Z,21.90
2018-12-16T08:56:00.580Z,21.90
2018-12-16T08:58:28.705Z,21.90
2018-12-16T09:00:56.876Z,21.90
2018-12-16T09:03:24.992Z,21.80
2018-12-16T09:05:53.146Z,21.80
2018-12-16T09:08:21.581Z,21.80
2018-12-16T09:10:49.680Z,21.80
2018-12-16T09:13:28.389Z,21.70
2018-12-16T09:15:56.528Z,21.70
2018-12-16T09:18:24.658Z,21.70
2018-12-16T09:20:52.807Z,21.70
2018-12-16T09:23:20.948Z,21.60
2018-12-16T09:25:49.086Z,21.60
2018-12-16T09:28:17.210Z,21.50
2018-12-16T09:30:45.333Z,21.50
2018-12-16T09:33:13.681Z,21.50
2018-12-16T09:35:41.797Z,21.50
2018-12-16T09:38:09.926Z,21.50
2018-12-16T09:40:38.062Z,21.50
2018-12-16T09:43:06.271Z,21.40
2018-12-16T09:45:34.414Z,21.40
2018-12-16T09:48:02.586Z,21.40
2018-12-16T09:50:30.721Z,21.30
2018-12-16T09:53:00.217Z,21.30
2018-12-16T09:55:28.385Z,21.30
2018-12-16T09:57:56.529Z,21.30
2018-12-16T10:00:24.647Z,21.20
2018-12-16T10:02:52.789Z,21.20
2018-12-16T10:06:43.645Z,21.50
2018-12-16T10:09:11.863Z,21.50
2018-12-16T10:11:40.028Z,21.40
2018-12-16T10:14:08.175Z,21.30
2018-12-16T10:16:36.365Z,21.30
2018-12-16T10:19:04.578Z,21.30
2018-12-16T10:21:32.760Z,21.30
2018-12-16T10:24:00.872Z,21.30
2018-12-16T10:26:29.002Z,21.30
2018-12-16T10:28:57.139Z,21.30
2018-12-16T10:31:25.283Z,21.30
2018-12-16T10:33:53.497Z,21.30
2018-12-16T10:36:21.686Z,21.30
2018-12-16T10:38:49.800Z,21.20
2018-12-16T10:41:17.912Z,21.20
2018-12-16T10:43:46.072Z,21.20
2018-12-16T10:46:14.194Z,21.20
2018-12-16T10:48:42.347Z,21.20
2018-12-16T10:51:11.356Z,21.20
2018-12-16T10:53:39.477Z,21.20
2018-12-16T10:56:07.897Z,21.20
2018-12-16T10:58:36.048Z,21.10
2018-12-16T11:03:45.790Z,21.10
2018-12-16T11:06:13.992Z,21.20
2018-12-16T11:08:42.894Z,21.20
2018-12-16T11:11:11.038Z,21.10
2018-12-16T11:13:39.337Z,21.10
2018-12-16T11:16:07.458Z,21.10
2018-12-16T11:18:35.630Z,21.10
2018-12-16T11:21:03.899Z,21.00
2018-12-16T11:23:32.041Z,21.00
2018-12-16T11:26:00.158Z,21.00
2018-12-16T11:28:28.319Z,21.00
2018-12-16T11:30:56.460Z,21.00
2018-12-16T11:33:24.577Z,21.00
2018-12-16T11:35:52.762Z,21.00
2018-12-16T11:38:20.891Z,21.00
2018-12-16T11:40:48.997Z,21.00
2018-12-16T11:43:17.179Z,21.00
2018-12-16T11:45:45.368Z,20.90
2018-12-16T11:48:13.482Z,20.90
2018-12-16T11:50:41.624Z,20.90
2018-12-16T11:53:09.824Z,20.90
2018-12-16T11:55:39.126Z,20.90
2018-12-16T11:58:07.279Z,20.90
2018-12-16T12:00:35.402Z,20.90
2018-12-16T12:03:03.551Z,20.90
2018-12-16T12:05:31.690Z,20.90
2018-12-16T12:07:59.886Z,20.80
2018-12-16T12:10:29.022Z,20.90
2018-12-16T12:12:57.166Z,20.80
2018-12-16T12:15:25.329Z,20.80
2018-12-16T12:17:53.527Z,20.80
2018-12-16T12:20:21.643Z,20.80
2018-12-16T12:22:49.798Z,20.80
2018-12-16T12:25:20.008Z,20.80
2018-12-16T12:27:48.067Z,20.80
2018-12-16T12:30:16.230Z,20.80
2018-12-16T12:32:44.352Z,20.80
2018-12-16T12:35:12.616Z,20.80
2018-12-16T12:37:40.894Z,20.80
2018-12-16T12:40:08.987Z,20.80
2018-12-16T12:42:37.097Z,20.80
2018-12-16T12:45:06.885Z,20.80
2018-12-16T12:47:35.020Z,20.80
2018-12-16T12:50:03.148Z,20.80
2018-12-16T12:52:31.290Z,20.80
2018-12-16T12:54:59.410Z,20.80
2018-12-16T12:57:27.548Z,20.80
2018-12-16T12:59:55.710Z,20.80
2018-12-16T13:02:23.829Z,20.80
2018-12-16T13:04:51.949Z,20.80
2018-12-16T13:07:20.081Z,20.80
2018-12-16T13:09:48.219Z,20.80
2018-12-16T13:12:16.338Z,20.80
2018-12-16T13:14:44.505Z,20.80
2018-12-16T13:17:12.620Z,20.80
2018-12-16T13:19:40.740Z,20.80
2018-12-16T13:22:08.880Z,20.80
2018-12-16T13:24:41.004Z,20.80
2018-12-16T13:27:09.132Z,20.80
2018-12-16T13:29:37.290Z,20.80
2018-12-16T13:32:05.541Z,20.70
2018-12-16T13:34:33.655Z,20.70
2018-12-16T13:37:01.831Z,20.70
2018-12-16T13:39:29.956Z,20.70
2018-12-16T13:41:58.070Z,20.70
2018-12-16T13:44:26.263Z,20.70
2018-12-16T13:46:54.379Z,20.70
2018-12-16T13:49:22.527Z,20.70
2018-12-16T13:51:50.671Z,20.70
2018-12-16T13:54:18.853Z,20.70
2018-12-16T13:56:46.997Z,20.70
2018-12-16T13:59:15.138Z,20.70
2018-12-16T14:01:43.272Z,20.70
2018-12-16T14:04:11.402Z,20.60
2018-12-16T14:06:39.561Z,20.60
2018-12-16T14:09:07.680Z,20.60
2018-12-16T14:11:35.813Z,20.60
2018-12-16T14:14:03.944Z,20.60
2018-12-16T14:16:32.066Z,20.60
2018-12-16T14:19:00.217Z,20.60
2018-12-16T14:21:28.348Z,20.50
2018-12-16T14:23:56.464Z,20.50
2018-12-16T14:27:43.151Z,20.60
2018-12-16T14:30:12.087Z,23.40
2018-12-16T14:32:40.257Z,25.60
2018-12-16T14:35:11.425Z,26.60
2018-12-16T14:37:39.549Z,27.10
2018-12-16T14:40:08.437Z,27.20
2018-12-16T14:42:36.583Z,27.20
2018-12-16T14:45:07.479Z,27.30
2018-12-16T14:47:35.632Z,27.40
2018-12-16T14:50:06.259Z,27.40
2018-12-16T14:52:34.389Z,27.40
2018-12-16T14:55:02.538Z,27.40
2018-12-16T14:57:30.682Z,27.40
2018-12-16T14:59:58.828Z,27.40
2018-12-16T15:02:27.054Z,27.40
2018-12-16T15:04:55.198Z,27.40
2018-12-16T15:07:23.321Z,27.40
2018-12-16T15:09:51.474Z,27.40
2018-12-16T15:12:21.163Z,27.40
2018-12-16T15:14:50.101Z,27.40
2018-12-16T15:17:18.260Z,27.40
2018-12-16T15:19:46.432Z,27.40
2018-12-16T15:22:14.641Z,27.40
2018-12-16T15:24:42.776Z,27.40
2018-12-16T15:27:11.138Z,27.30
2018-12-16T15:29:39.295Z,27.20
2018-12-16T15:32:07.485Z,27.10
2018-12-16T15:34:35.641Z,27.00
2018-12-16T15:37:03.933Z,26.80
2018-12-16T15:39:32.078Z,26.60
2018-12-16T15:42:00.230Z,26.30
2018-12-16T15:44:28.350Z,26.10
2018-12-16T15:46:56.577Z,25.80
2018-12-16T15:49:24.743Z,25.60
2018-12-16T15:51:53.116Z,25.50
2018-12-16T15:54:21.242Z,25.30
2018-12-16T15:56:49.347Z,25.10
2018-12-16T15:59:17.511Z,24.90
2018-12-16T16:01:45.619Z,24.70
2018-12-16T16:04:13.757Z,24.50
2018-12-16T16:06:41.937Z,24.30
2018-12-16T16:09:10.083Z,24.10
2018-12-16T16:11:38.441Z,24.00
2018-12-16T16:14:06.682Z,24.10
2018-12-16T16:16:34.818Z,24.60
2018-12-16T16:19:03.594Z,25.20
2018-12-16T16:21:31.766Z,25.90
2018-12-16T16:23:59.889Z,26.40
2018-12-16T16:26:28.111Z,26.70
2018-12-16T16:28:56.393Z,26.70
2018-12-16T16:31:24.533Z,26.80
2018-12-16T16:33:52.670Z,26.80
2018-12-16T16:36:20.795Z,26.80
2018-12-16T16:38:48.939Z,26.70
2018-12-16T16:41:17.145Z,26.50
2018-12-16T16:43:45.276Z,26.30
2018-12-16T16:46:13.402Z,26.10
2018-12-16T16:48:41.568Z,25.90
2018-12-16T16:51:09.685Z,25.80
2018-12-16T16:53:37.843Z,25.60
2018-12-16T16:56:06.004Z,25.40
2018-12-16T16:58:34.126Z,25.20
2018-12-16T17:01:02.344Z,24.90
2018-12-16T17:03:30.502Z,24.70
2018-12-16T17:05:58.917Z,24.50
2018-12-16T17:08:27.115Z,24.30
2018-12-16T17:10:57.598Z,24.20
2018-12-16T17:13:25.814Z,24.00
2018-12-16T17:15:54.005Z,23.80
2018-12-16T17:18:22.209Z,23.70
2018-12-16T17:20:50.472Z,23.70
2018-12-16T17:23:18.584Z,24.30
2018-12-16T17:25:48.472Z,25.20
2018-12-16T17:28:17.033Z,26.00
2018-12-16T17:30:45.162Z,26.60
2018-12-16T17:33:13.327Z,26.80
2018-12-16T17:35:41.530Z,26.90
2018-12-16T17:38:09.652Z,26.90
2018-12-16T17:40:37.829Z,27.00
2018-12-16T17:43:06.066Z,26.90
2018-12-16T17:45:34.181Z,26.70
2018-12-16T17:48:02.349Z,26.60
2018-12-16T17:50:31.380Z,26.30
2018-12-16T17:52:59.541Z,26.20
2018-12-16T17:55:27.741Z,26.00
2018-12-16T17:57:55.888Z,25.80
2018-12-16T18:00:24.100Z,25.60
2018-12-16T18:02:52.219Z,25.40
2018-12-16T18:05:20.408Z,25.10
2018-12-16T18:07:48.575Z,24.80
2018-12-16T18:10:17.312Z,24.60
2018-12-16T18:12:45.484Z,24.40
2018-12-16T18:15:13.609Z,24.20
2018-12-16T18:17:41.781Z,24.10
2018-12-16T18:20:09.905Z,23.90
2018-12-16T18:22:38.036Z,23.70
2018-12-16T18:25:06.237Z,23.60
2018-12-16T18:27:34.359Z,23.60
2018-12-16T18:30:04.315Z,24.00
2018-12-16T18:32:32.439Z,24.60
2018-12-16T18:35:00.603Z,25.60
2018-12-16T18:37:28.852Z,26.20
2018-12-16T18:39:57.059Z,26.70
2018-12-16T18:42:25.207Z,27.10
2018-12-16T18:44:53.328Z,27.50
2018-12-16T18:47:21.481Z,27.70
2018-12-16T18:49:49.605Z,27.50
2018-12-16T18:52:17.745Z,27.60
2018-12-16T18:54:45.865Z,27.70
2018-12-16T18:57:13.990Z,27.70
2018-12-16T18:59:42.373Z,27.80
2018-12-16T19:02:10.481Z,27.50
2018-12-16T19:04:38.853Z,27.10
2018-12-16T19:07:06.966Z,26.80
2018-12-16T19:09:35.129Z,26.60
2018-12-16T19:12:03.302Z,26.30
2018-12-16T19:14:33.096Z,26.00
2018-12-16T19:17:01.260Z,25.70
2018-12-16T19:19:29.673Z,25.70
2018-12-16T19:21:57.779Z,26.10
2018-12-16T19:24:26.055Z,26.50
2018-12-16T19:26:58.259Z,26.70
2018-12-16T19:29:24.371Z,26.90
2018-12-16T19:31:52.523Z,26.90
2018-12-16T19:34:20.686Z,27.00
2018-12-16T19:36:48.847Z,27.00
2018-12-16T19:39:17.377Z,27.00
2018-12-16T19:41:45.514Z,26.90
2018-12-16T19:44:13.672Z,26.90
2018-12-16T19:46:41.794Z,26.90
2018-12-16T19:49:10.009Z,26.80
2018-12-16T19:51:39.024Z,26.60
2018-12-16T19:54:07.212Z,26.50
2018-12-16T19:56:35.356Z,26.40
2018-12-16T19:59:03.534Z,26.20
2018-12-16T20:01:31.688Z,26.00
2018-12-16T20:04:05.550Z,25.90
2018-12-16T20:06:39.602Z,25.70
2018-12-16T20:09:07.802Z,25.50
2018-12-16T20:11:35.969Z,25.30
2018-12-16T20:14:04.071Z,25.20
2018-12-16T20:16:32.232Z,25.10
2018-12-16T20:19:00.375Z,25.00
2018-12-16T20:21:28.509Z,24.90
2018-12-16T20:23:56.664Z,24.80
2018-12-16T20:26:24.954Z,24.70
2018-12-16T20:28:53.101Z,24.70
2018-12-16T20:31:21.269Z,24.70
2018-12-16T20:33:49.390Z,24.70
2018-12-16T20:36:17.525Z,24.80
2018-12-16T20:38:45.706Z,24.90
2018-12-16T20:41:14.448Z,25.10
2018-12-16T20:43:42.598Z,25.30
2018-12-16T20:46:10.794Z,25.30
2018-12-16T20:48:38.933Z,25.40
2018-12-16T20:51:07.074Z,25.40
2018-12-16T20:53:35.201Z,25.40
2018-12-16T20:56:03.344Z,25.30
2018-12-16T20:58:31.517Z,25.20
2018-12-16T21:02:33.549Z,24.90
2018-12-16T21:05:01.896Z,24.70
2018-12-16T21:07:30.101Z,24.40
2018-12-16T21:09:58.255Z,24.10
2018-12-16T21:12:32.035Z,23.90
2018-12-16T21:15:06.000Z,23.80
2018-12-16T21:17:39.699Z,23.60
2018-12-16T21:20:08.139Z,23.40
2018-12-16T21:22:36.269Z,23.30
2018-12-16T21:25:05.972Z,23.20
2018-12-16T21:27:35.597Z,23.10
2018-12-16T21:30:07.854Z,23.00
2018-12-16T21:32:35.993Z,22.90
2018-12-16T21:35:06.078Z,22.80
2018-12-16T21:37:34.219Z,22.70
2018-12-16T21:40:05.983Z,22.60
2018-12-16T21:42:34.103Z,22.60
2018-12-16T21:45:02.218Z,22.50
2018-12-16T21:47:30.778Z,22.50
2018-12-16T21:49:58.922Z,22.50
2018-12-16T21:52:27.043Z,22.40
2018-12-16T21:54:55.258Z,22.40
2018-12-16T21:57:23.379Z,22.30
2018-12-16T21:59:52.982Z,22.20
2018-12-16T22:02:21.142Z,22.20
2018-12-16T22:04:49.627Z,22.10
2018-12-16T22:07:17.982Z,22.10
2018-12-16T22:09:46.094Z,22.10
2018-12-16T22:12:14.218Z,22.00
2018-12-16T22:14:43.620Z,22.00
2018-12-16T22:17:11.743Z,21.90
2018-12-16T22:19:39.885Z,21.90
2018-12-16T22:22:08.573Z,21.90
2018-12-16T22:24:36.775Z,21.90
2018-12-16T22:27:04.894Z,21.80
2018-12-16T22:29:33.050Z,21.80
2018-12-16T22:32:01.176Z,21.80
2018-12-16T22:34:29.376Z,21.80
2018-12-16T22:36:57.557Z,21.70
2018-12-16T22:39:25.681Z,21.70
2018-12-16T22:42:07.258Z,21.70
2018-12-16T22:44:35.446Z,21.60
2018-12-16T22:47:03.570Z,21.60
2018-12-16T22:49:31.690Z,21.60
2018-12-16T22:52:05.468Z,21.70
2018-12-16T22:54:33.675Z,21.90
2018-12-16T22:57:01.851Z,22.10
2018-12-16T22:59:30.075Z,22.30
2018-12-16T23:01:58.246Z,22.50
2018-12-16T23:04:26.425Z,22.70
2018-12-16T23:06:54.568Z,22.80
2018-12-16T23:09:22.712Z,22.90
2018-12-16T23:11:50.887Z,23.00
2018-12-16T23:14:19.617Z,23.00
2018-12-16T23:16:47.741Z,23.10
2018-12-16T23:19:15.893Z,23.10
2018-12-16T23:21:44.511Z,23.10
2018-12-16T23:24:12.721Z,23.10
2018-12-16T23:26:40.836Z,23.10
2018-12-16T23:29:09.011Z,23.10
2018-12-16T23:31:37.217Z,23.00
2018-12-16T23:34:05.331Z,23.00
2018-12-16T23:36:33.478Z,22.90
2018-12-16T23:39:01.686Z,22.80
2018-12-16T23:41:29.880Z,22.70
2018-12-16T23:43:58.112Z,22.60
2018-12-16T23:46:26.229Z,22.50
2018-12-16T23:48:54.404Z,22.40
2018-12-16T23:51:22.589Z,22.30
2018-12-16T23:53:50.767Z,22.20
2018-12-16T23:56:18.972Z,22.10
2018-12-16T23:58:47.185Z,22.10
